Time;durP1;ratioP1;P1;durP2;ratioP2;P2;SDS_P1;SDS_P2;PMS_P1;PMS_P2;Temp;Humidity;BMP_temperature;BMP_pressure;BME280_temperature;BME280_humidity;BME280_pressure;Samples;Min_cycle;Max_cycle;Signal;HPM_P1;HPM_P2
2022/01/31 00:01:58;;;;;;;47.83;10.15;;;7.50;99.90;;;;;;5066840;28;20754;-70
2022/01/31 00:04:24;;;;;;;46.03;8.73;;;7.40;99.90;;;;;;5066611;28;20411;-66
2022/01/31 00:06:50;;;;;;;47.88;9.65;;;7.30;99.90;;;;;;5081670;28;20435;-67
2022/01/31 00:09:17;;;;;;;46.63;8.83;;;7.30;99.90;;;;;;5065621;28;20446;-67
2022/01/31 00:11:52;;;;;;;45.83;9.43;;;7.30;99.90;;;;;;5065051;28;20487;-72
2022/01/31 00:14:30;;;;;;;44.75;7.57;;;7.20;99.90;;;;;;5049278;28;20473;-69
2022/01/31 00:16:56;;;;;;;44.40;6.45;;;7.20;99.90;;;;;;5049012;28;20886;-70
2022/01/31 00:19:21;;;;;;;39.60;6.22;;;7.20;99.90;;;;;;5048571;28;20410;-70
2022/01/31 00:21:47;;;;;;;51.33;6.22;;;7.20;99.90;;;;;;5066587;28;20621;-68
2022/01/31 00:24:13;;;;;;;44.10;6.37;;;7.20;99.90;;;;;;5032664;28;20430;-65
2022/01/31 00:26:38;;;;;;;41.38;6.05;;;7.10;99.90;;;;;;5065764;28;20411;-70
2022/01/31 00:29:04;;;;;;;47.20;6.00;;;7.10;99.90;;;;;;5048309;28;20447;-66
2022/01/31 00:31:31;;;;;;;50.97;6.47;;;7.00;99.90;;;;;;5066022;28;20411;-70
2022/01/31 00:33:57;;;;;;;47.42;6.50;;;7.00;99.90;;;;;;5066928;28;20443;-69
2022/01/31 00:36:23;;;;;;;44.23;6.50;;;7.00;99.90;;;;;;5063155;28;20455;-71
2022/01/31 00:38:48;;;;;;;41.83;6.47;;;7.10;99.90;;;;;;5065418;28;20423;-70
2022/01/31 00:41:14;;;;;;;44.08;6.75;;;7.10;99.90;;;;;;5064680;28;20411;-71
2022/01/31 00:43:40;;;;;;;47.80;6.50;;;7.10;99.90;;;;;;5063725;28;20973;-67
2022/01/31 00:46:12;;;;;;;42.38;6.55;;;7.10;99.90;;;;;;5065151;28;20491;-68
2022/01/31 00:48:43;;;;;;;46.53;6.75;;;7.10;99.90;;;;;;5066116;28;20507;-69
2022/01/31 00:51:09;;;;;;;49.67;6.93;;;7.20;99.90;;;;;;5066796;28;20415;-70
2022/01/31 00:53:35;;;;;;;58.45;7.45;;;7.20;99.90;;;;;;5071282;28;20468;-70
2022/01/31 00:56:01;;;;;;;54.50;6.63;;;7.20;99.90;;;;;;5049800;28;20426;-71
2022/01/31 00:58:27;;;;;;;50.78;6.15;;;7.20;99.90;;;;;;5053389;28;20293;-71
2022/01/31 01:00:53;;;;;;;45.97;6.30;;;6.90;99.90;;;;;;5069342;28;20502;-70
2022/01/31 01:03:19;;;;;;;46.97;6.47;;;7.00;99.90;;;;;;5051809;28;20788;-72
2022/01/31 01:05:44;;;;;;;37.95;5.72;;;7.20;99.90;;;;;;5068738;28;20453;-70
2022/01/31 01:08:10;;;;;;;46.33;6.47;;;7.30;99.90;;;;;;5051554;28;20487;-70
2022/01/31 01:10:36;;;;;;;39.05;6.20;;;7.30;99.90;;;;;;5051078;28;20414;-70
2022/01/31 01:13:02;;;;;;;43.17;6.40;;;7.30;99.90;;;;;;5052142;28;20445;-69
2022/01/31 01:15:29;;;;;;;41.22;6.45;;;7.40;99.90;;;;;;5066962;28;20400;-71
2022/01/31 01:17:54;;;;;;;49.15;6.95;;;7.40;99.90;;;;;;5052157;28;20459;-71
2022/01/31 01:20:21;;;;;;;49.27;6.83;;;7.50;99.90;;;;;;5050156;28;20469;-68
2022/01/31 01:22:47;;;;;;;48.50;6.72;;;7.50;99.90;;;;;;5051499;28;20399;-71
2022/01/31 01:25:14;;;;;;;52.10;7.80;;;7.60;99.90;;;;;;5050995;28;20427;-69
2022/01/31 01:27:42;;;;;;;51.33;7.03;;;7.60;99.90;;;;;;5051355;28;20407;-69
2022/01/31 01:30:14;;;;;;;58.23;8.30;;;7.70;99.90;;;;;;5051068;28;20911;-68
2022/01/31 01:35:29;;;;;;;51.20;8.10;;;7.70;99.90;;;;;;5083121;28;20426;-70
2022/01/31 01:37:55;;;;;;;51.85;8.00;;;7.80;99.90;;;;;;5034444;28;20431;-70
2022/01/31 01:40:21;;;;;;;54.50;7.95;;;7.80;99.90;;;;;;5067996;28;20426;-70
2022/01/31 01:42:46;;;;;;;52.30;7.40;;;7.80;99.90;;;;;;5052229;28;20423;-71
2022/01/31 01:45:12;;;;;;;56.13;7.70;;;7.90;99.90;;;;;;5067058;28;20403;-70
2022/01/31 01:47:40;;;;;;;55.63;6.95;;;7.90;99.90;;;;;;5051575;28;20407;-71
2022/01/31 01:50:06;;;;;;;49.43;7.63;;;7.90;99.90;;;;;;5068048;28;20756;-70
2022/01/31 01:52:32;;;;;;;42.42;6.70;;;7.90;99.90;;;;;;5050194;28;20422;-70
2022/01/31 01:54:58;;;;;;;41.75;6.85;;;7.90;99.90;;;;;;5048851;28;20407;-71
2022/01/31 01:57:24;;;;;;;40.37;6.07;;;8.00;99.90;;;;;;5052004;28;20494;-71
2022/01/31 01:59:56;;;;;;;39.47;6.15;;;8.00;99.90;;;;;;5050095;28;20415;-70
2022/01/31 02:02:37;;;;;;;40.75;6.18;;;8.00;99.90;;;;;;5068239;28;20485;-69
2022/01/31 02:05:05;;;;;;;30.80;5.53;;;8.00;99.90;;;;;;5050472;28;20403;-68
2022/01/31 02:07:37;;;;;;;34.50;5.72;;;8.00;99.90;;;;;;5050655;28;20399;-71
2022/01/31 02:10:06;;;;;;;34.90;5.65;;;8.00;99.90;;;;;;5050069;28;20414;-68
2022/01/31 02:12:46;;;;;;;34.33;5.85;;;8.00;99.90;;;;;;5051406;28;20469;-70
2022/01/31 02:15:25;;;;;;;32.70;5.43;;;8.00;99.90;;;;;;5049404;28;20408;-71
2022/01/31 02:18:26;;;;;;;31.37;5.97;;;8.00;99.90;;;;;;5043944;28;20486;-68
2022/01/31 02:20:53;;;;;;;31.25;5.22;;;8.00;99.90;;;;;;5047513;28;20520;-67
2022/01/31 02:23:21;;;;;;;32.42;5.32;;;8.00;99.90;;;;;;5050831;28;20411;-68
2022/01/31 02:26:03;;;;;;;32.38;6.00;;;8.00;99.90;;;;;;5049895;28;20776;-67
2022/01/31 02:29:08;;;;;;;31.03;5.00;;;8.00;99.90;;;;;;5046599;28;20407;-70
2022/01/31 02:31:35;;;;;;;37.00;5.67;;;8.00;99.90;;;;;;5049080;28;20411;-69
2022/01/31 02:34:01;;;;;;;26.95;4.82;;;8.00;99.90;;;;;;5069747;28;20460;-67
2022/01/31 02:36:27;;;;;;;37.40;4.82;;;7.80;99.90;;;;;;5050478;28;20263;-69
2022/01/31 02:38:53;;;;;;;34.70;4.45;;;7.50;99.90;;;;;;5049757;28;20360;-70
2022/01/31 02:41:19;;;;;;;35.20;4.55;;;7.40;99.90;;;;;;5068643;28;20206;-71
2022/01/31 02:43:49;;;;;;;31.38;4.38;;;7.30;99.90;;;;;;5051429;28;20189;-71
2022/01/31 02:46:19;;;;;;;38.67;5.50;;;7.20;99.90;;;;;;5049564;28;20178;-70
2022/01/31 02:48:52;;;;;;;41.20;5.32;;;7.10;99.90;;;;;;5050292;28;20178;-71
2022/01/31 02:51:21;;;;;;;33.60;5.43;;;7.00;99.90;;;;;;5049858;28;20270;-71
2022/01/31 02:53:48;;;;;;;34.35;4.85;;;7.00;99.90;;;;;;5051283;28;20176;-67
2022/01/31 02:56:14;;;;;;;30.77;4.90;;;7.00;99.90;;;;;;5048597;28;20548;-68
2022/01/31 02:58:40;;;;;;;29.30;4.22;;;6.90;99.90;;;;;;5068483;28;20213;-69
2022/01/31 03:01:07;;;;;;;36.55;4.75;;;6.90;99.90;;;;;;5049823;28;20256;-68
2022/01/31 03:03:38;;;;;;;29.75;4.15;;;6.90;99.90;;;;;;5066302;28;20182;-67
2022/01/31 03:06:03;;;;;;;30.05;4.30;;;6.90;99.90;;;;;;5033821;28;20646;-70
2022/01/31 03:08:30;;;;;;;27.50;4.40;;;6.80;99.90;;;;;;5050731;28;20182;-68
2022/01/31 03:10:59;;;;;;;31.33;3.80;;;6.80;99.90;;;;;;5049838;28;20232;-68
2022/01/31 03:13:43;;;;;;;24.83;3.92;;;6.80;99.90;;;;;;5050349;28;20178;-70
2022/01/31 03:16:08;;;;;;;44.42;5.25;;;6.80;99.90;;;;;;5049307;28;20193;-68
2022/01/31 03:19:09;;;;;;;32.10;4.72;;;6.80;99.90;;;;;;5062774;28;20324;-71
2022/01/31 03:21:37;;;;;;;26.13;4.32;;;6.80;99.90;;;;;;5049122;28;20629;-70
2022/01/31 03:24:03;;;;;;;29.02;4.82;;;6.90;99.90;;;;;;5048956;28;20182;-70
2022/01/31 03:26:29;;;;;;;31.33;4.40;;;6.90;99.90;;;;;;5049545;28;20185;-70
2022/01/31 03:28:55;;;;;;;35.63;4.43;;;6.90;99.90;;;;;;5067910;28;20197;-67
2022/01/31 03:31:21;;;;;;;43.92;4.85;;;6.90;99.90;;;;;;5049503;28;20510;-70
2022/01/31 03:33:48;;;;;;;31.63;4.20;;;6.90;99.90;;;;;;5050285;28;20662;-70
2022/01/31 03:36:14;;;;;;;35.35;4.45;;;7.00;99.90;;;;;;5047046;28;20241;-68
2022/01/31 03:38:41;;;;;;;25.80;4.05;;;7.00;99.90;;;;;;5067699;28;20193;-68
2022/01/31 03:41:16;;;;;;;23.15;3.80;;;7.00;99.90;;;;;;5050332;28;20306;-71
2022/01/31 03:43:42;;;;;;;40.17;4.53;;;7.00;99.90;;;;;;5051017;28;20185;-70
2022/01/31 03:46:08;;;;;;;33.65;4.93;;;7.00;99.90;;;;;;5049910;28;20650;-71
2022/01/31 03:48:34;;;;;;;28.20;3.95;;;7.00;99.90;;;;;;5049965;28;20194;-70
2022/01/31 03:51:04;;;;;;;26.00;3.55;;;7.10;99.90;;;;;;5050223;28;20196;-71
2022/01/31 03:53:33;;;;;;;31.15;4.47;;;7.10;99.90;;;;;;5049653;28;20197;-71
2022/01/31 03:55:59;;;;;;;31.92;4.97;;;7.10;99.90;;;;;;5048938;28;20185;-69
2022/01/31 03:58:26;;;;;;;33.90;5.57;;;7.10;99.90;;;;;;5049326;28;20412;-70
2022/01/31 04:01:00;;;;;;;30.13;5.00;;;7.50;99.90;;;;;;5066501;28;20414;-70
2022/01/31 04:03:25;;;;;;;35.20;5.13;;;7.80;99.90;;;;;;5081758;28;20426;-69
2022/01/31 04:05:51;;;;;;;41.58;5.90;;;7.90;99.90;;;;;;5065262;28;20396;-71
2022/01/31 04:08:17;;;;;;;31.50;5.57;;;8.00;99.90;;;;;;5049573;28;20399;-68
2022/01/31 04:10:42;;;;;;;36.83;5.93;;;8.10;99.90;;;;;;5066547;28;20415;-71
2022/01/31 04:13:08;;;;;;;34.67;6.43;;;8.10;99.90;;;;;;5066488;28;20415;-68
2022/01/31 04:15:39;;;;;;;37.42;6.13;;;8.20;99.90;;;;;;5048731;28;20408;-69
2022/01/31 04:18:05;;;;;;;33.53;5.68;;;8.30;99.90;;;;;;5065740;28;20427;-71
2022/01/31 04:20:31;;;;;;;37.30;6.32;;;8.30;99.90;;;;;;5066551;28;20487;-69
2022/01/31 04:23:02;;;;;;;38.45;5.93;;;8.30;99.90;;;;;;5065734;28;20419;-69
2022/01/31 04:25:29;;;;;;;37.50;5.47;;;8.30;99.90;;;;;;5067351;28;20938;-73
2022/01/31 04:28:04;;;;;;;39.53;5.78;;;8.40;99.90;;;;;;5070287;28;20403;-71
2022/01/31 04:30:37;;;;;;;38.53;5.75;;;8.40;99.90;;;;;;5068393;28;20767;-71
2022/01/31 04:33:03;;;;;;;38.50;5.93;;;8.40;99.90;;;;;;5070054;28;20422;-69
2022/01/31 04:35:29;;;;;;;35.17;5.20;;;8.40;99.90;;;;;;5068590;28;20423;-69
2022/01/31 04:37:58;;;;;;;26.27;3.88;;;8.40;99.90;;;;;;5068744;28;20419;-70
2022/01/31 04:40:24;;;;;;;22.95;2.72;;;8.30;99.90;;;;;;5067341;28;20417;-71
2022/01/31 04:42:49;;;;;;;23.80;2.87;;;8.10;99.90;;;;;;5068456;28;20423;-69
2022/01/31 04:45:15;;;;;;;33.83;3.60;;;7.90;99.90;;;;;;5067497;28;20413;-69
2022/01/31 04:47:40;;;;;;;35.97;4.43;;;7.80;99.90;;;;;;5068309;28;20434;-71
2022/01/31 04:50:07;;;;;;;40.63;5.33;;;7.70;99.90;;;;;;5068936;28;20468;-70
2022/01/31 04:52:32;;;;;;;40.75;4.78;;;7.70;99.90;;;;;;5068122;28;20411;-71
2022/01/31 04:54:58;;;;;;;41.17;5.30;;;7.70;99.90;;;;;;5065587;28;20419;-70
2022/01/31 04:57:24;;;;;;;31.43;5.07;;;7.70;99.90;;;;;;5069890;28;20419;-71
2022/01/31 04:59:50;;;;;;;40.20;5.07;;;7.70;99.90;;;;;;5068811;28;20407;-70
2022/01/31 05:02:16;;;;;;;30.83;5.17;;;7.70;99.90;;;;;;5069097;28;20415;-68
2022/01/31 05:04:42;;;;;;;35.60;5.20;;;7.70;99.90;;;;;;5065813;28;20969;-70
2022/01/31 05:07:07;;;;;;;34.57;5.63;;;7.70;99.90;;;;;;5068879;28;20426;-71
2022/01/31 05:09:33;;;;;;;45.10;5.80;;;7.70;99.90;;;;;;5047612;28;20468;-70
2022/01/31 05:11:59;;;;;;;35.93;5.67;;;7.80;99.90;;;;;;5068051;28;20923;-68
2022/01/31 05:14:25;;;;;;;36.17;5.45;;;7.80;99.90;;;;;;5065636;28;20942;-72
2022/01/31 05:16:50;;;;;;;31.43;4.73;;;7.80;99.90;;;;;;5067468;28;20446;-66
2022/01/31 05:19:16;;;;;;;38.22;5.97;;;7.80;99.90;;;;;;5069317;28;20456;-68
2022/01/31 05:21:42;;;;;;;35.87;5.10;;;7.90;99.90;;;;;;5068457;28;20454;-70
2022/01/31 05:24:07;;;;;;;38.53;5.57;;;7.90;99.90;;;;;;5067042;28;20737;-67
2022/01/31 05:26:34;;;;;;;32.97;5.05;;;7.90;99.90;;;;;;5067864;28;20411;-71
2022/01/31 05:28:59;;;;;;;44.78;5.80;;;7.90;99.90;;;;;;5068928;28;20768;-67
2022/01/31 05:31:25;;;;;;;45.80;5.97;;;7.90;99.90;;;;;;5068291;28;20426;-65
2022/01/31 05:33:51;;;;;;;30.80;4.50;;;7.90;99.90;;;;;;5069971;28;20408;-68
2022/01/31 05:36:17;;;;;;;32.63;4.23;;;8.00;99.90;;;;;;5065896;28;20492;-69
2022/01/31 05:38:43;;;;;;;30.35;4.97;;;7.90;99.90;;;;;;5069076;28;20406;-67
2022/01/31 05:41:16;;;;;;;39.30;5.03;;;7.90;99.90;;;;;;5065379;28;20455;-69
2022/01/31 05:43:42;;;;;;;37.28;5.35;;;7.80;99.90;;;;;;5068551;28;20419;-72
2022/01/31 05:46:08;;;;;;;39.40;5.25;;;7.80;99.90;;;;;;5048453;28;20422;-70
2022/01/31 05:48:34;;;;;;;37.13;5.40;;;7.80;99.90;;;;;;5068066;28;20418;-72
2022/01/31 05:51:01;;;;;;;43.30;5.35;;;7.80;99.90;;;;;;5066296;28;20419;-70
2022/01/31 05:53:27;;;;;;;47.55;6.45;;;7.70;99.90;;;;;;5067308;28;20423;-70
2022/01/31 05:55:53;;;;;;;48.47;5.93;;;7.70;99.90;;;;;;5065833;28;20414;-70
2022/01/31 05:58:19;;;;;;;41.47;5.70;;;7.80;99.90;;;;;;5067197;28;20419;-69
2022/01/31 06:00:44;;;;;;;39.83;6.00;;;7.70;99.90;;;;;;5066980;28;20464;-71
2022/01/31 06:03:10;;;;;;;43.42;5.88;;;7.80;99.90;;;;;;5067943;28;20403;-73
2022/01/31 06:05:36;;;;;;;37.13;5.27;;;7.80;99.90;;;;;;5065681;28;20412;-74
2022/01/31 06:08:02;;;;;;;41.13;6.05;;;7.80;99.90;;;;;;5067555;28;20427;-70
2022/01/31 06:10:27;;;;;;;43.57;5.40;;;7.80;99.90;;;;;;5064424;28;20417;-69
2022/01/31 06:12:55;;;;;;;45.90;6.05;;;7.80;99.90;;;;;;5067288;28;20411;-68
2022/01/31 06:15:21;;;;;;;40.80;5.50;;;7.80;99.90;;;;;;5066923;28;20419;-68
2022/01/31 06:17:46;;;;;;;41.47;5.50;;;7.80;99.90;;;;;;5049520;28;20441;-68
2022/01/31 06:20:12;;;;;;;42.03;5.83;;;7.80;99.90;;;;;;5067861;28;20491;-69
2022/01/31 06:22:50;;;;;;;41.25;5.70;;;7.80;99.90;;;;;;5068383;28;20911;-72
2022/01/31 06:25:17;;;;;;;34.03;5.40;;;7.80;99.90;;;;;;5064594;28;20514;-72
2022/01/31 06:27:44;;;;;;;35.28;5.55;;;7.80;99.90;;;;;;5049089;28;20407;-72
2022/01/31 06:30:10;;;;;;;34.88;4.38;;;7.80;99.90;;;;;;5050730;28;20270;-70
2022/01/31 06:32:37;;;;;;;38.42;4.30;;;7.40;99.90;;;;;;5051253;28;20193;-72
2022/01/31 06:35:03;;;;;;;32.17;4.22;;;7.20;99.90;;;;;;5048205;28;20197;-71
2022/01/31 06:37:29;;;;;;;34.13;4.00;;;7.00;99.90;;;;;;5049986;28;20195;-74
2022/01/31 06:39:54;;;;;;;47.05;5.03;;;6.80;99.90;;;;;;5050315;28;20198;-72
2022/01/31 06:42:21;;;;;;;41.08;5.10;;;6.70;99.90;;;;;;5068498;28;20218;-73
2022/01/31 06:44:47;;;;;;;49.08;6.32;;;6.70;99.90;;;;;;5068439;28;20182;-72
2022/01/31 06:47:13;;;;;;;59.85;6.70;;;6.60;99.90;;;;;;5065884;28;20473;-67
2022/01/31 06:49:38;;;;;;;54.27;6.77;;;7.00;99.90;;;;;;5065675;28;20742;-70
2022/01/31 06:52:05;;;;;;;50.03;7.07;;;7.30;99.90;;;;;;5067519;28;20411;-70
2022/01/31 06:54:30;;;;;;;48.15;6.68;;;7.50;99.90;;;;;;5066338;28;20422;-71
2022/01/31 06:56:57;;;;;;;48.00;6.37;;;7.60;99.90;;;;;;5066831;28;20435;-70
2022/01/31 06:59:23;;;;;;;39.90;6.53;;;7.60;99.90;;;;;;5063957;28;20431;-69
2022/01/31 07:01:49;;;;;;;51.60;6.93;;;7.60;99.90;;;;;;5065361;28;20525;-73
2022/01/31 07:04:15;;;;;;;52.25;7.05;;;7.60;99.90;;;;;;5067229;28;20403;-70
2022/01/31 07:06:41;;;;;;;56.50;7.25;;;7.60;99.90;;;;;;5067483;28;20513;-68
2022/01/31 07:09:06;;;;;;;60.33;7.67;;;7.70;99.90;;;;;;5048592;28;20407;-70
2022/01/31 07:11:37;;;;;;;65.85;7.90;;;7.70;99.90;;;;;;5049425;28;20429;-71
2022/01/31 07:14:06;;;;;;;50.88;6.70;;;7.70;99.90;;;;;;5066161;28;20412;-69
2022/01/31 07:16:34;;;;;;;48.25;7.03;;;7.70;99.90;;;;;;5048412;28;20408;-72
2022/01/31 07:19:08;;;;;;;51.05;6.70;;;7.80;99.90;;;;;;5067109;28;20407;-68
2022/01/31 07:21:45;;;;;;;51.67;6.90;;;7.80;99.90;;;;;;5066971;28;20419;-71
2022/01/31 07:26:37;;;;;;;53.15;7.15;;;7.90;99.90;;;;;;5067685;28;20495;-72
2022/01/31 07:29:02;;;;;;;50.13;7.15;;;7.80;99.90;;;;;;5066387;28;20864;-71
2022/01/31 07:31:28;;;;;;;42.10;6.20;;;7.80;99.90;;;;;;5062533;28;20408;-72
2022/01/31 07:33:54;;;;;;;51.20;6.47;;;7.80;99.90;;;;;;5063478;28;20438;-71
2022/01/31 07:36:19;;;;;;;50.15;6.82;;;7.90;99.90;;;;;;5065808;28;20476;-73
2022/01/31 07:38:45;;;;;;;44.47;6.32;;;7.90;99.90;;;;;;5065837;28;20407;-73
2022/01/31 07:41:14;;;;;;;49.80;6.55;;;7.90;99.90;;;;;;5048178;28;20452;-73
2022/01/31 07:43:43;;;;;;;53.95;7.65;;;7.90;99.90;;;;;;5063353;28;20775;-72
2022/01/31 07:46:12;;;;;;;48.00;7.75;;;7.90;99.90;;;;;;5065451;28;20960;-75
2022/01/31 07:48:38;;;;;;;53.10;7.90;;;7.90;99.90;;;;;;5067022;28;20474;-70
2022/01/31 07:51:04;;;;;;;49.50;7.50;;;7.90;99.90;;;;;;5065438;28;21041;-71
2022/01/31 07:53:29;;;;;;;54.20;7.97;;;8.00;99.90;;;;;;5048291;28;20461;-69
2022/01/31 07:55:55;;;;;;;56.43;7.93;;;8.00;99.90;;;;;;5065760;28;20403;-72
2022/01/31 07:58:21;;;;;;;58.13;7.73;;;8.00;99.90;;;;;;5066114;28;20422;-73
2022/01/31 08:00:47;;;;;;;44.45;6.72;;;8.00;99.90;;;;;;5071171;28;20490;-72
2022/01/31 08:03:13;;;;;;;47.70;6.00;;;8.00;99.90;;;;;;5072928;28;20191;-71
2022/01/31 08:05:39;;;;;;;43.10;5.97;;;7.60;99.90;;;;;;5070924;28;20187;-73
2022/01/31 08:08:05;;;;;;;58.58;6.60;;;7.40;99.90;;;;;;5072209;28;20189;-71
2022/01/31 08:10:32;;;;;;;52.45;7.03;;;7.20;99.90;;;;;;5068509;28;20178;-72
2022/01/31 08:13:00;;;;;;;48.83;6.07;;;7.10;99.90;;;;;;5052143;28;20189;-73
2022/01/31 08:15:28;;;;;;;60.72;6.90;;;7.00;99.90;;;;;;5072175;28;20190;-73
2022/01/31 08:17:54;;;;;;;47.80;6.00;;;6.90;99.90;;;;;;5071932;28;20198;-73
2022/01/31 08:20:20;;;;;;;47.03;5.95;;;6.90;99.90;;;;;;5053613;28;20749;-73
2022/01/31 08:22:45;;;;;;;41.13;6.20;;;6.80;99.90;;;;;;5070834;28;20319;-75
2022/01/31 08:25:14;;;;;;;43.50;6.05;;;6.80;99.90;;;;;;5053559;28;20193;-73
2022/01/31 08:27:49;;;;;;;64.40;6.60;;;6.80;99.90;;;;;;5052090;28;20186;-70
2022/01/31 08:30:21;;;;;;;54.13;6.25;;;6.80;99.90;;;;;;5068480;28;20197;-71
2022/01/31 08:32:58;;;;;;;52.65;7.03;;;6.80;99.90;;;;;;5052461;28;20324;-71
2022/01/31 08:38:09;;;;;;;52.70;6.15;;;6.80;99.90;;;;;;5068885;28;21067;-72
2022/01/31 08:40:34;;;;;;;58.70;7.15;;;6.80;99.90;;;;;;5069657;28;20317;-69
2022/01/31 08:43:00;;;;;;;63.53;6.82;;;6.80;99.90;;;;;;5085244;28;21033;-70
2022/01/31 08:45:25;;;;;;;63.43;8.50;;;6.70;99.90;;;;;;5069050;28;20414;-70
2022/01/31 08:47:51;;;;;;;52.70;8.00;;;7.10;99.90;;;;;;5068647;28;20403;-69
2022/01/31 08:50:17;;;;;;;43.30;7.07;;;7.40;99.90;;;;;;5068594;28;20816;-71
2022/01/31 08:52:42;;;;;;;52.23;7.83;;;7.60;99.90;;;;;;5069111;28;20420;-70
2022/01/31 08:55:09;;;;;;;52.90;8.80;;;7.70;99.90;;;;;;5069366;28;20398;-69
2022/01/31 08:57:35;;;;;;;55.13;8.00;;;7.80;99.90;;;;;;5066436;28;20502;-71
2022/01/31 09:00:01;;;;;;;55.60;8.65;;;7.90;99.90;;;;;;5068189;28;20475;-69
2022/01/31 09:02:38;;;;;;;59.53;9.73;;;7.90;99.90;;;;;;5066086;28;20894;-70
2022/01/31 09:05:04;;;;;;;67.38;9.52;;;8.00;99.90;;;;;;5068219;28;20750;-72
2022/01/31 09:07:30;;;;;;;76.03;10.73;;;8.10;99.90;;;;;;5067301;28;20410;-72
2022/01/31 09:09:58;;;;;;;59.22;8.57;;;8.10;99.90;;;;;;5069645;28;20190;-71
2022/01/31 09:12:28;;;;;;;64.75;7.72;;;7.80;99.90;;;;;;5067742;28;20270;-73
2022/01/31 09:14:54;;;;;;;59.85;8.65;;;7.50;99.90;;;;;;5068583;28;20244;-70
2022/01/31 09:17:20;;;;;;;57.15;7.07;;;7.30;99.90;;;;;;5069967;28;20179;-72
2022/01/31 09:19:45;;;;;;;63.50;8.05;;;7.20;99.90;;;;;;5069492;28;20194;-71
2022/01/31 09:22:11;;;;;;;54.55;8.23;;;7.20;99.90;;;;;;5067764;28;20676;-72
2022/01/31 09:24:38;;;;;;;79.20;9.23;;;7.10;99.90;;;;;;5071480;28;20217;-74
2022/01/31 09:27:08;;;;;;;70.03;9.00;;;7.00;99.90;;;;;;5069605;28;20186;-71
2022/01/31 09:29:34;;;;;;;70.70;7.90;;;7.00;99.90;;;;;;5059587;28;20179;-71
2022/01/31 09:32:02;;;;;;;71.32;8.75;;;7.00;99.90;;;;;;5071136;28;20651;-71
2022/01/31 09:34:30;;;;;;;58.28;8.23;;;7.00;99.90;;;;;;5070492;28;20191;-73
2022/01/31 09:36:56;;;;;;;63.63;7.47;;;7.00;99.90;;;;;;5069952;28;20269;-74
2022/01/31 09:39:22;;;;;;;69.95;8.45;;;7.00;99.90;;;;;;5070650;28;20315;-73
2022/01/31 09:41:53;;;;;;;70.78;9.38;;;7.00;99.90;;;;;;5071274;28;20293;-72
2022/01/31 09:44:26;;;;;;;60.35;8.18;;;7.00;99.90;;;;;;5069502;28;20185;-70
2022/01/31 09:47:05;;;;;;;67.55;8.57;;;7.00;99.90;;;;;;5070984;28;20191;-70
2022/01/31 09:49:30;;;;;;;52.78;8.05;;;7.00;99.90;;;;;;5066628;28;20186;-70
2022/01/31 09:51:56;;;;;;;57.88;7.47;;;7.00;99.90;;;;;;5051625;28;20191;-72
2022/01/31 09:54:25;;;;;;;55.75;7.10;;;7.00;99.90;;;;;;5068960;28;20388;-72
2022/01/31 09:56:50;;;;;;;50.60;6.88;;;7.00;99.90;;;;;;5069974;28;20205;-70
2022/01/31 09:59:17;;;;;;;37.67;5.72;;;7.00;99.90;;;;;;5070226;28;20175;-70
2022/01/31 10:01:47;;;;;;;42.72;5.80;;;7.00;99.90;;;;;;5070179;28;20213;-71
2022/01/31 10:04:18;;;;;;;52.13;6.93;;;7.00;99.90;;;;;;5068746;28;20197;-69
2022/01/31 10:06:47;;;;;;;51.70;6.47;;;7.00;99.90;;;;;;5069625;28;20552;-74
2022/01/31 10:09:19;;;;;;;46.90;6.32;;;7.00;99.90;;;;;;5069214;28;20546;-69
2022/01/31 10:11:53;;;;;;;46.60;6.47;;;7.00;99.90;;;;;;5051705;28;20210;-69
2022/01/31 10:17:26;;;;;;;53.40;8.43;;;7.00;99.90;;;;;;5068347;28;20186;-71
2022/01/31 10:19:55;;;;;;;66.50;8.15;;;7.00;99.90;;;;;;5049634;28;20197;-70
2022/01/31 10:22:23;;;;;;;70.78;10.55;;;7.00;99.90;;;;;;5068179;28;20435;-72
2022/01/31 10:24:51;;;;;;;61.15;9.93;;;7.40;99.90;;;;;;5065657;28;20403;-73
2022/01/31 10:27:24;;;;;;;60.80;9.65;;;7.80;99.90;;;;;;5049057;28;20502;-71
2022/01/31 10:30:15;;;;;;;70.22;9.85;;;8.00;99.90;;;;;;5082727;28;20476;-72
2022/01/31 10:32:45;;;;;;;57.35;9.43;;;8.10;99.90;;;;;;5067656;28;20415;-71
2022/01/31 10:35:32;;;;;;;65.37;10.10;;;8.20;99.90;;;;;;5066879;28;20819;-68
2022/01/31 10:38:03;;;;;;;68.47;9.73;;;8.20;99.90;;;;;;5046226;28;20443;-74
2022/01/31 10:56:54;;;;;;;78.75;11.20;;;8.40;99.90;;;;;;5067262;28;20437;-72
2022/01/31 10:59:27;;;;;;;71.82;10.95;;;8.40;99.90;;;;;;5064533;28;20403;-71
2022/01/31 11:01:55;;;;;;;67.03;10.32;;;8.50;99.90;;;;;;5067178;28;20415;-72
2022/01/31 11:04:22;;;;;;;75.55;10.93;;;8.50;99.90;;;;;;5066158;28;20755;-70
2022/01/31 11:06:55;;;;;;;72.75;10.60;;;8.50;99.90;;;;;;5067810;28;20783;-70
2022/01/31 11:09:21;;;;;;;84.57;11.45;;;8.60;99.90;;;;;;5066349;28;20418;-70
2022/01/31 11:11:49;;;;;;;78.23;11.57;;;8.60;99.90;;;;;;5066980;28;20395;-71
2022/01/31 11:14:16;;;;;;;65.25;10.00;;;8.60;99.90;;;;;;5049829;28;20419;-71
2022/01/31 11:16:45;;;;;;;68.97;10.57;;;8.60;99.90;;;;;;5066888;28;20465;-71
2022/01/31 11:19:12;;;;;;;60.53;9.07;;;8.60;99.90;;;;;;5066030;28;20426;-70
2022/01/31 11:21:45;;;;;;;54.85;8.60;;;8.70;99.90;;;;;;5065630;28;20505;-72
2022/01/31 11:24:23;;;;;;;60.08;9.20;;;8.70;99.90;;;;;;5067600;28;20411;-71
2022/01/31 11:26:51;;;;;;;59.72;9.20;;;8.70;99.90;;;;;;5066533;28;20406;-70
2022/01/31 11:29:18;;;;;;;60.15;8.52;;;8.70;99.90;;;;;;5068218;28;20331;-70
2022/01/31 11:31:45;;;;;;;63.08;8.68;;;8.30;99.90;;;;;;5068314;28;20198;-71
2022/01/31 11:34:11;;;;;;;63.40;7.72;;;8.10;99.90;;;;;;5068297;28;20217;-72
2022/01/31 11:36:40;;;;;;;55.15;8.40;;;7.80;99.90;;;;;;5067008;28;20591;-70
2022/01/31 11:39:12;;;;;;;69.15;9.05;;;7.80;99.90;;;;;;5066913;28;20207;-72
2022/01/31 11:41:46;;;;;;;64.68;8.60;;;7.70;99.90;;;;;;5067023;28;20238;-70
2022/01/31 11:44:45;;;;;;;70.35;8.98;;;7.60;99.90;;;;;;5067262;28;20247;-71
2022/01/31 11:47:12;;;;;;;68.82;9.85;;;7.50;99.90;;;;;;5029369;28;20182;-71
2022/01/31 11:49:50;;;;;;;71.60;9.30;;;7.50;99.90;;;;;;5067129;28;20603;-71
2022/01/31 11:52:17;;;;;;;67.20;8.85;;;7.50;99.90;;;;;;5065840;28;20178;-71
2022/01/31 11:55:00;;;;;;;68.07;8.75;;;7.40;99.90;;;;;;5066589;28;20186;-72
2022/01/31 11:57:28;;;;;;;85.80;9.38;;;7.40;99.90;;;;;;5067927;28;20273;-70
2022/01/31 11:59:59;;;;;;;66.82;8.20;;;7.40;99.90;;;;;;5068022;28;20182;-71
2022/01/31 12:02:28;;;;;;;52.15;8.55;;;7.40;99.90;;;;;;5047019;28;20268;-71
2022/01/31 12:04:54;;;;;;;70.72;9.48;;;7.40;99.90;;;;;;5067046;28;20258;-72
2022/01/31 12:07:36;;;;;;;64.18;8.85;;;7.30;99.90;;;;;;5068266;28;20212;-72
2022/01/31 12:10:02;;;;;;;80.28;10.70;;;7.30;99.90;;;;;;5068176;28;20332;-70
2022/01/31 12:12:42;;;;;;;79.03;9.15;;;7.40;99.90;;;;;;5068318;28;20175;-72
2022/01/31 12:23:35;;;;;;;71.50;9.13;;;7.40;99.90;;;;;;5049131;28;20233;-73
2022/01/31 12:26:02;;;;;;;77.60;9.43;;;7.40;99.90;;;;;;5065587;28;20205;-72
2022/01/31 12:28:40;;;;;;;81.40;9.90;;;7.40;99.90;;;;;;5050596;28;20182;-72
2022/01/31 12:31:29;;;;;;;67.18;9.35;;;7.40;99.90;;;;;;5068370;28;20557;-72
2022/01/31 12:33:56;;;;;;;87.97;9.02;;;7.40;99.90;;;;;;5064979;28;20195;-72
2022/01/31 12:36:36;;;;;;;87.70;9.55;;;7.40;99.90;;;;;;5066509;28;20234;-74
2022/01/31 12:39:28;;;;;;;58.85;7.85;;;7.50;99.90;;;;;;5067375;28;20187;-72
2022/01/31 12:42:01;;;;;;;73.53;10.07;;;7.50;99.90;;;;;;5064941;28;20223;-72
2022/01/31 12:44:29;;;;;;;74.70;9.80;;;7.50;99.90;;;;;;5066658;28;20182;-72
2022/01/31 12:47:07;;;;;;;63.20;9.32;;;7.50;99.90;;;;;;5068641;28;20654;-72
2022/01/31 12:49:33;;;;;;;72.63;11.15;;;7.60;99.90;;;;;;5070146;28;20896;-70
2022/01/31 12:52:06;;;;;;;66.90;8.45;;;8.00;99.90;;;;;;5065542;28;20544;-71
2022/01/31 12:54:32;;;;;;;61.03;8.63;;;7.90;99.90;;;;;;5067894;28;20210;-71
2022/01/31 12:57:04;;;;;;;56.47;8.20;;;7.80;99.90;;;;;;5052841;28;21003;-72
2022/01/31 12:59:30;;;;;;;64.07;9.27;;;7.70;99.90;;;;;;5053593;28;20191;-72
2022/01/31 13:01:58;;;;;;;63.28;8.20;;;7.70;99.90;;;;;;5069975;28;20271;-71
2022/01/31 13:04:26;;;;;;;52.53;7.35;;;7.70;99.90;;;;;;5070238;28;20608;-71
2022/01/31 13:07:00;;;;;;;68.05;8.73;;;7.60;99.90;;;;;;5070125;28;20192;-72
2022/01/31 13:09:28;;;;;;;74.97;9.13;;;7.60;99.90;;;;;;5071440;28;20584;-72
2022/01/31 13:11:56;;;;;;;72.88;8.45;;;7.60;99.90;;;;;;5071292;28;20222;-72
2022/01/31 13:14:27;;;;;;;53.95;8.50;;;7.60;99.90;;;;;;5069351;28;20187;-72
2022/01/31 13:19:33;;;;;;;75.88;9.55;;;7.60;99.90;;;;;;5071148;28;20195;-72
2022/01/31 13:22:01;;;;;;;72.28;9.55;;;7.60;99.90;;;;;;5052703;28;20210;-71
2022/01/31 13:24:36;;;;;;;68.10;10.55;;;7.60;99.90;;;;;;5070290;28;20227;-73
2022/01/31 13:27:02;;;;;;;55.33;8.48;;;7.60;99.90;;;;;;5070254;28;20162;-72
2022/01/31 13:29:41;;;;;;;62.85;8.32;;;7.60;99.90;;;;;;5069844;28;20193;-72
2022/01/31 13:32:18;;;;;;;62.88;7.75;;;7.70;99.90;;;;;;5052497;28;20202;-72